Athens, Alabama
Current Conditions -  °F | °C
As of 6:53 PM on Tuesday 27 Jan 2015 (Local Time) from KDCU Reporting Station
Clear Clear  
Wind Chill: 36°   Ceiling: Unl
Heat Index: 43°   Visibility: 10mi
Dew Point: 31°   Wind: 14mph
Humidity: 62%   Direction: 30°NNE
Pressure: 30.15"   Gusts: NA
Location:  34.8°N, 86.97°W
Report Text: KDCU 280053Z AUTO 03012KT 10SM CLR 06/M01 A3015 RMK AO2 SLP211 T00611006
Loading
Personal Weather Stations






























Interactive Weather Map New forecast layout! Learn more

10-Day Weather Forecast

Advertisements
Track Severe Weather on mobile